sensor_id;sensor_type;location;lat;lon;timestamp;temperature;humidity
15543;DHT22;7873;52.230;12.856;2022-08-25T00:01:19;26.40;54.80
15543;DHT22;7873;52.230;12.856;2022-08-25T00:03:49;26.30;55.10
15543;DHT22;7873;52.230;12.856;2022-08-25T00:06:17;26.30;55.10
15543;DHT22;7873;52.230;12.856;2022-08-25T00:08:44;26.30;55.10
15543;DHT22;7873;52.230;12.856;2022-08-25T00:11:12;26.30;55.00
15543;DHT22;7873;52.230;12.856;2022-08-25T00:13:41;26.30;55.00
15543;DHT22;7873;52.230;12.856;2022-08-25T00:16:09;26.30;55.00
15543;DHT22;7873;52.230;12.856;2022-08-25T00:18:36;26.30;55.10
15543;DHT22;7873;52.230;12.856;2022-08-25T00:21:05;26.30;55.20
15543;DHT22;7873;52.230;12.856;2022-08-25T00:23:33;26.30;55.20
15543;DHT22;7873;52.230;12.856;2022-08-25T00:26:00;26.30;55.20
15543;DHT22;7873;52.230;12.856;2022-08-25T00:28:27;26.30;55.00
15543;DHT22;7873;52.230;12.856;2022-08-25T00:30:55;26.30;55.10
15543;DHT22;7873;52.230;12.856;2022-08-25T00:33:23;26.40;55.00
15543;DHT22;7873;52.230;12.856;2022-08-25T00:35:51;26.40;55.50
15543;DHT22;7873;52.230;12.856;2022-08-25T00:38:19;26.40;54.80
15543;DHT22;7873;52.230;12.856;2022-08-25T00:40:46;26.50;54.70
15543;DHT22;7873;52.230;12.856;2022-08-25T00:43:31;26.50;54.50
15543;DHT22;7873;52.230;12.856;2022-08-25T00:45:59;26.70;54.30
15543;DHT22;7873;52.230;12.856;2022-08-25T00:48:27;26.80;53.90
15543;DHT22;7873;52.230;12.856;2022-08-25T00:50:53;26.80;53.80
15543;DHT22;7873;52.230;12.856;2022-08-25T00:53:22;26.80;53.90
15543;DHT22;7873;52.230;12.856;2022-08-25T00:55:48;26.80;53.90
15543;DHT22;7873;52.230;12.856;2022-08-25T00:58:17;26.80;53.80
15543;DHT22;7873;52.230;12.856;2022-08-25T01:00:47;26.80;53.80
15543;DHT22;7873;52.230;12.856;2022-08-25T01:03:17;26.80;53.70
15543;DHT22;7873;52.230;12.856;2022-08-25T01:05:45;26.80;53.80
15543;DHT22;7873;52.230;12.856;2022-08-25T01:08:12;26.90;53.60
15543;DHT22;7873;52.230;12.856;2022-08-25T01:10:42;26.80;53.80
15543;DHT22;7873;52.230;12.856;2022-08-25T01:13:10;26.90;53.70
15543;DHT22;7873;52.230;12.856;2022-08-25T01:15:39;26.90;54.50
15543;DHT22;7873;52.230;12.856;2022-08-25T01:18:06;26.80;53.80
15543;DHT22;7873;52.230;12.856;2022-08-25T01:20:33;26.60;54.20
15543;DHT22;7873;52.230;12.856;2022-08-25T01:23:01;26.60;54.50
15543;DHT22;7873;52.230;12.856;2022-08-25T01:25:31;26.50;54.50
15543;DHT22;7873;52.230;12.856;2022-08-25T01:28:04;26.50;54.50
15543;DHT22;7873;52.230;12.856;2022-08-25T01:30:31;26.40;54.70
15543;DHT22;7873;52.230;12.856;2022-08-25T01:33:00;26.40;54.70
15543;DHT22;7873;52.230;12.856;2022-08-25T01:35:29;26.50;54.60
15543;DHT22;7873;52.230;12.856;2022-08-25T01:37:57;26.60;54.30
15543;DHT22;7873;52.230;12.856;2022-08-25T01:40:26;26.60;54.40
15543;DHT22;7873;52.230;12.856;2022-08-25T01:42:56;26.60;54.30
15543;DHT22;7873;52.230;12.856;2022-08-25T01:45:27;26.70;54.20
15543;DHT22;7873;52.230;12.856;2022-08-25T01:47:54;26.60;54.10
15543;DHT22;7873;52.230;12.856;2022-08-25T01:50:21;26.50;54.30
15543;DHT22;7873;52.230;12.856;2022-08-25T01:52:49;26.50;54.60
15543;DHT22;7873;52.230;12.856;2022-08-25T01:55:19;26.50;54.70
15543;DHT22;7873;52.230;12.856;2022-08-25T01:57:47;26.40;54.70
15543;DHT22;7873;52.230;12.856;2022-08-25T02:00:14;26.40;54.70
15543;DHT22;7873;52.230;12.856;2022-08-25T02:02:42;26.40;55.00
15543;DHT22;7873;52.230;12.856;2022-08-25T02:05:09;26.40;55.00
15543;DHT22;7873;52.230;12.856;2022-08-25T02:07:38;26.40;55.00
15543;DHT22;7873;52.230;12.856;2022-08-25T02:10:07;26.40;54.80
15543;DHT22;7873;52.230;12.856;2022-08-25T02:12:34;26.40;54.80
15543;DHT22;7873;52.230;12.856;2022-08-25T02:15:03;26.40;54.80
15543;DHT22;7873;52.230;12.856;2022-08-25T02:17:30;26.40;54.90
15543;DHT22;7873;52.230;12.856;2022-08-25T02:19:57;26.40;54.80
15543;DHT22;7873;52.230;12.856;2022-08-25T02:22:24;26.40;54.80
15543;DHT22;7873;52.230;12.856;2022-08-25T02:24:51;26.40;54.80
15543;DHT22;7873;52.230;12.856;2022-08-25T02:27:17;26.40;54.70
15543;DHT22;7873;52.230;12.856;2022-08-25T02:29:44;26.40;54.70
15543;DHT22;7873;52.230;12.856;2022-08-25T02:32:12;26.40;54.80
15543;DHT22;7873;52.230;12.856;2022-08-25T02:34:39;26.40;54.70
15543;DHT22;7873;52.230;12.856;2022-08-25T02:37:06;26.40;54.80
15543;DHT22;7873;52.230;12.856;2022-08-25T02:39:33;26.40;55.00
15543;DHT22;7873;52.230;12.856;2022-08-25T02:42:01;26.40;55.00
15543;DHT22;7873;52.230;12.856;2022-08-25T02:44:27;26.30;54.90
15543;DHT22;7873;52.230;12.856;2022-08-25T02:46:55;26.40;55.00
15543;DHT22;7873;52.230;12.856;2022-08-25T02:49:23;26.40;54.90
15543;DHT22;7873;52.230;12.856;2022-08-25T02:51:50;26.40;54.80
15543;DHT22;7873;52.230;12.856;2022-08-25T02:54:18;26.30;54.80
15543;DHT22;7873;52.230;12.856;2022-08-25T02:56:44;26.40;54.80
15543;DHT22;7873;52.230;12.856;2022-08-25T02:59:11;26.40;54.80
15543;DHT22;7873;52.230;12.856;2022-08-25T03:01:38;26.40;54.70
15543;DHT22;7873;52.230;12.856;2022-08-25T03:04:04;26.40;54.70
15543;DHT22;7873;52.230;12.856;2022-08-25T03:06:32;26.40;54.70
15543;DHT22;7873;52.230;12.856;2022-08-25T03:08:59;26.40;54.60
15543;DHT22;7873;52.230;12.856;2022-08-25T03:11:26;26.40;54.50
15543;DHT22;7873;52.230;12.856;2022-08-25T03:13:54;26.40;54.60
15543;DHT22;7873;52.230;12.856;2022-08-25T03:16:21;26.40;54.70
15543;DHT22;7873;52.230;12.856;2022-08-25T03:18:48;26.40;54.70
15543;DHT22;7873;52.230;12.856;2022-08-25T03:21:16;26.40;54.80
15543;DHT22;7873;52.230;12.856;2022-08-25T03:23:44;26.40;54.80
15543;DHT22;7873;52.230;12.856;2022-08-25T03:26:11;26.40;54.70
15543;DHT22;7873;52.230;12.856;2022-08-25T03:28:55;26.50;54.50
15543;DHT22;7873;52.230;12.856;2022-08-25T03:31:22;26.50;54.50
15543;DHT22;7873;52.230;12.856;2022-08-25T03:33:50;26.40;54.70
15543;DHT22;7873;52.230;12.856;2022-08-25T03:36:18;26.40;54.70
15543;DHT22;7873;52.230;12.856;2022-08-25T03:38:46;26.40;54.90
15543;DHT22;7873;52.230;12.856;2022-08-25T03:41:14;26.40;54.40
15543;DHT22;7873;52.230;12.856;2022-08-25T03:43:42;26.40;54.80
15543;DHT22;7873;52.230;12.856;2022-08-25T03:46:09;26.40;54.80
15543;DHT22;7873;52.230;12.856;2022-08-25T03:48:42;26.60;54.60
15543;DHT22;7873;52.230;12.856;2022-08-25T03:51:08;26.70;54.20
15543;DHT22;7873;52.230;12.856;2022-08-25T03:53:35;26.80;54.10
15543;DHT22;7873;52.230;12.856;2022-08-25T03:56:03;26.80;53.90
15543;DHT22;7873;52.230;12.856;2022-08-25T03:58:30;26.90;53.90
15543;DHT22;7873;52.230;12.856;2022-08-25T04:00:57;26.80;54.00
15543;DHT22;7873;52.230;12.856;2022-08-25T04:03:25;26.80;54.10
15543;DHT22;7873;52.230;12.856;2022-08-25T04:05:52;26.70;54.30
15543;DHT22;7873;52.230;12.856;2022-08-25T04:08:18;26.70;53.80
15543;DHT22;7873;52.230;12.856;2022-08-25T04:10:46;26.50;54.30
15543;DHT22;7873;52.230;12.856;2022-08-25T04:13:14;26.40;54.60
15543;DHT22;7873;52.230;12.856;2022-08-25T04:15:42;26.30;54.90
15543;DHT22;7873;52.230;12.856;2022-08-25T04:18:09;26.30;55.10
15543;DHT22;7873;52.230;12.856;2022-08-25T04:20:37;26.30;55.10
15543;DHT22;7873;52.230;12.856;2022-08-25T04:23:04;26.30;55.20
15543;DHT22;7873;52.230;12.856;2022-08-25T04:25:31;26.40;55.10
15543;DHT22;7873;52.230;12.856;2022-08-25T04:27:58;26.40;55.10
15543;DHT22;7873;52.230;12.856;2022-08-25T04:30:26;26.40;55.10
15543;DHT22;7873;52.230;12.856;2022-08-25T04:32:52;26.20;55.50
15543;DHT22;7873;52.230;12.856;2022-08-25T04:35:19;26.40;55.90
15543;DHT22;7873;52.230;12.856;2022-08-25T04:37:47;26.60;55.80
15543;DHT22;7873;52.230;12.856;2022-08-25T04:40:13;26.50;55.40
15543;DHT22;7873;52.230;12.856;2022-08-25T04:42:40;26.30;55.80
15543;DHT22;7873;52.230;12.856;2022-08-25T04:45:09;26.40;56.10
15543;DHT22;7873;52.230;12.856;2022-08-25T04:47:37;26.40;56.60
15543;DHT22;7873;52.230;12.856;2022-08-25T04:50:04;26.40;56.60
15543;DHT22;7873;52.230;12.856;2022-08-25T04:52:32;26.40;56.60
15543;DHT22;7873;52.230;12.856;2022-08-25T04:54:59;26.40;56.50
15543;DHT22;7873;52.230;12.856;2022-08-25T04:57:25;26.40;56.80
15543;DHT22;7873;52.230;12.856;2022-08-25T04:59:52;26.50;56.80
15543;DHT22;7873;52.230;12.856;2022-08-25T05:02:20;26.50;56.40
15543;DHT22;7873;52.230;12.856;2022-08-25T05:04:48;26.70;56.10
15543;DHT22;7873;52.230;12.856;2022-08-25T05:07:14;26.60;56.10
15543;DHT22;7873;52.230;12.856;2022-08-25T05:09:41;26.60;56.30
15543;DHT22;7873;52.230;12.856;2022-08-25T05:12:08;26.50;55.90
15543;DHT22;7873;52.230;12.856;2022-08-25T05:14:35;26.40;56.40
15543;DHT22;7873;52.230;12.856;2022-08-25T05:17:01;26.20;56.90
15543;DHT22;7873;52.230;12.856;2022-08-25T05:19:28;26.30;56.50
15543;DHT22;7873;52.230;12.856;2022-08-25T05:21:56;26.40;56.40
15543;DHT22;7873;52.230;12.856;2022-08-25T05:24:23;26.40;56.20
15543;DHT22;7873;52.230;12.856;2022-08-25T05:26:49;26.30;56.10
15543;DHT22;7873;52.230;12.856;2022-08-25T05:29:16;26.40;56.20
15543;DHT22;7873;52.230;12.856;2022-08-25T05:31:43;26.40;55.90
15543;DHT22;7873;52.230;12.856;2022-08-25T05:34:10;26.50;56.30
15543;DHT22;7873;52.230;12.856;2022-08-25T05:36:37;26.40;56.60
15543;DHT22;7873;52.230;12.856;2022-08-25T05:39:08;26.30;56.50
15543;DHT22;7873;52.230;12.856;2022-08-25T05:41:35;26.20;56.70
15543;DHT22;7873;52.230;12.856;2022-08-25T05:44:02;26.30;56.60
15543;DHT22;7873;52.230;12.856;2022-08-25T05:46:29;26.20;56.60
15543;DHT22;7873;52.230;12.856;2022-08-25T05:48:56;26.20;56.50
15543;DHT22;7873;52.230;12.856;2022-08-25T05:51:23;26.30;56.40
15543;DHT22;7873;52.230;12.856;2022-08-25T05:53:50;26.20;56.20
15543;DHT22;7873;52.230;12.856;2022-08-25T05:56:18;26.30;56.10
15543;DHT22;7873;52.230;12.856;2022-08-25T05:58:45;26.20;56.10
15543;DHT22;7873;52.230;12.856;2022-08-25T06:01:19;26.20;55.90
15543;DHT22;7873;52.230;12.856;2022-08-25T06:04:05;26.20;55.90
15543;DHT22;7873;52.230;12.856;2022-08-25T06:06:32;26.20;55.80
15543;DHT22;7873;52.230;12.856;2022-08-25T06:09:00;26.20;55.80
15543;DHT22;7873;52.230;12.856;2022-08-25T06:11:29;26.20;55.70
15543;DHT22;7873;52.230;12.856;2022-08-25T06:13:56;26.30;55.60
15543;DHT22;7873;52.230;12.856;2022-08-25T06:16:22;26.30;55.50
15543;DHT22;7873;52.230;12.856;2022-08-25T06:18:49;26.20;55.50
15543;DHT22;7873;52.230;12.856;2022-08-25T06:21:16;26.20;55.50
15543;DHT22;7873;52.230;12.856;2022-08-25T06:23:42;26.30;55.50
15543;DHT22;7873;52.230;12.856;2022-08-25T06:26:09;26.30;55.40
15543;DHT22;7873;52.230;12.856;2022-08-25T06:28:38;26.30;55.20
15543;DHT22;7873;52.230;12.856;2022-08-25T06:31:05;26.30;55.20
15543;DHT22;7873;52.230;12.856;2022-08-25T06:33:32;26.30;55.30
15543;DHT22;7873;52.230;12.856;2022-08-25T06:35:58;26.20;55.20
15543;DHT22;7873;52.230;12.856;2022-08-25T06:38:25;26.30;55.10
15543;DHT22;7873;52.230;12.856;2022-08-25T06:40:52;26.30;55.20
15543;DHT22;7873;52.230;12.856;2022-08-25T06:43:20;26.30;55.00
15543;DHT22;7873;52.230;12.856;2022-08-25T06:45:48;26.30;55.10
15543;DHT22;7873;52.230;12.856;2022-08-25T06:48:14;26.30;55.00
15543;DHT22;7873;52.230;12.856;2022-08-25T06:50:41;26.30;55.00
15543;DHT22;7873;52.230;12.856;2022-08-25T06:53:08;26.30;55.00
15543;DHT22;7873;52.230;12.856;2022-08-25T06:55:35;26.30;55.10
15543;DHT22;7873;52.230;12.856;2022-08-25T06:58:02;26.30;55.00
15543;DHT22;7873;52.230;12.856;2022-08-25T07:00:30;26.30;54.90
15543;DHT22;7873;52.230;12.856;2022-08-25T07:02:58;26.30;54.80
15543;DHT22;7873;52.230;12.856;2022-08-25T07:05:26;26.30;54.80
15543;DHT22;7873;52.230;12.856;2022-08-25T07:07:53;26.30;55.70
15543;DHT22;7873;52.230;12.856;2022-08-25T07:10:20;26.20;56.50
15543;DHT22;7873;52.230;12.856;2022-08-25T07:12:46;26.20;56.90
15543;DHT22;7873;52.230;12.856;2022-08-25T07:15:13;26.40;55.50
15543;DHT22;7873;52.230;12.856;2022-08-25T07:17:40;26.50;55.20
15543;DHT22;7873;52.230;12.856;2022-08-25T07:20:08;26.60;55.20
15543;DHT22;7873;52.230;12.856;2022-08-25T07:22:35;26.60;55.00
15543;DHT22;7873;52.230;12.856;2022-08-25T07:25:02;26.60;55.00
15543;DHT22;7873;52.230;12.856;2022-08-25T07:27:29;26.60;54.70
15543;DHT22;7873;52.230;12.856;2022-08-25T07:29:56;26.50;55.20
15543;DHT22;7873;52.230;12.856;2022-08-25T07:32:23;26.60;55.00
15543;DHT22;7873;52.230;12.856;2022-08-25T07:34:50;26.40;55.20
15543;DHT22;7873;52.230;12.856;2022-08-25T07:37:50;26.40;56.30
15543;DHT22;7873;52.230;12.856;2022-08-25T07:40:21;26.40;55.70
15543;DHT22;7873;52.230;12.856;2022-08-25T07:42:51;26.40;57.10
15543;DHT22;7873;52.230;12.856;2022-08-25T07:45:20;26.50;56.40
15543;DHT22;7873;52.230;12.856;2022-08-25T07:47:54;26.60;56.70
15543;DHT22;7873;52.230;12.856;2022-08-25T07:50:21;26.70;56.30
15543;DHT22;7873;52.230;12.856;2022-08-25T07:52:49;26.80;55.90
15543;DHT22;7873;52.230;12.856;2022-08-25T07:55:16;26.80;55.40
15543;DHT22;7873;52.230;12.856;2022-08-25T07:57:43;26.70;55.50
15543;DHT22;7873;52.230;12.856;2022-08-25T08:00:11;26.60;55.70
15543;DHT22;7873;52.230;12.856;2022-08-25T08:02:39;26.60;56.00
15543;DHT22;7873;52.230;12.856;2022-08-25T08:05:07;26.60;55.50
15543;DHT22;7873;52.230;12.856;2022-08-25T08:07:35;26.50;56.10
15543;DHT22;7873;52.230;12.856;2022-08-25T08:10:04;26.60;55.60
15543;DHT22;7873;52.230;12.856;2022-08-25T08:12:33;26.60;55.20
15543;DHT22;7873;52.230;12.856;2022-08-25T08:15:00;26.50;56.60
15543;DHT22;7873;52.230;12.856;2022-08-25T08:17:28;26.50;55.40
15543;DHT22;7873;52.230;12.856;2022-08-25T08:19:56;26.50;56.10
15543;DHT22;7873;52.230;12.856;2022-08-25T08:22:22;26.60;55.70
15543;DHT22;7873;52.230;12.856;2022-08-25T08:24:49;26.60;55.20
15543;DHT22;7873;52.230;12.856;2022-08-25T08:27:17;26.70;55.30
15543;DHT22;7873;52.230;12.856;2022-08-25T08:29:44;26.60;55.40
15543;DHT22;7873;52.230;12.856;2022-08-25T08:32:11;26.60;55.20
15543;DHT22;7873;52.230;12.856;2022-08-25T08:34:38;26.60;55.00
15543;DHT22;7873;52.230;12.856;2022-08-25T08:37:05;26.60;55.00
15543;DHT22;7873;52.230;12.856;2022-08-25T08:39:32;26.50;55.10
15543;DHT22;7873;52.230;12.856;2022-08-25T08:42:02;26.50;55.20
15543;DHT22;7873;52.230;12.856;2022-08-25T08:47:48;26.50;55.30
15543;DHT22;7873;52.230;12.856;2022-08-25T08:50:25;26.60;55.20
15543;DHT22;7873;52.230;12.856;2022-08-25T08:52:59;26.60;55.00
15543;DHT22;7873;52.230;12.856;2022-08-25T08:55:32;26.60;55.00
15543;DHT22;7873;52.230;12.856;2022-08-25T08:58:02;26.50;55.00
15543;DHT22;7873;52.230;12.856;2022-08-25T09:00:36;26.60;54.90
15543;DHT22;7873;52.230;12.856;2022-08-25T09:03:06;26.50;55.60
15543;DHT22;7873;52.230;12.856;2022-08-25T09:05:36;26.70;55.20
15543;DHT22;7873;52.230;12.856;2022-08-25T09:08:08;26.60;55.40
15543;DHT22;7873;52.230;12.856;2022-08-25T09:10:39;26.70;55.20
15543;DHT22;7873;52.230;12.856;2022-08-25T09:13:18;26.90;55.40
15543;DHT22;7873;52.230;12.856;2022-08-25T09:16:00;26.90;55.10
15543;DHT22;7873;52.230;12.856;2022-08-25T09:18:53;26.70;55.00
15543;DHT22;7873;52.230;12.856;2022-08-25T09:21:29;26.70;55.00
15543;DHT22;7873;52.230;12.856;2022-08-25T09:24:05;26.70;54.90
15543;DHT22;7873;52.230;12.856;2022-08-25T09:26:45;26.80;54.80
15543;DHT22;7873;52.230;12.856;2022-08-25T09:29:21;26.90;54.60
15543;DHT22;7873;52.230;12.856;2022-08-25T09:31:51;26.80;54.60
15543;DHT22;7873;52.230;12.856;2022-08-25T09:34:24;26.70;54.60
15543;DHT22;7873;52.230;12.856;2022-08-25T09:36:55;26.60;55.80
15543;DHT22;7873;52.230;12.856;2022-08-25T09:39:21;26.40;56.40
15543;DHT22;7873;52.230;12.856;2022-08-25T09:41:49;26.60;56.30
15543;DHT22;7873;52.230;12.856;2022-08-25T09:44:18;26.80;56.00
15543;DHT22;7873;52.230;12.856;2022-08-25T09:46:57;26.70;55.70
15543;DHT22;7873;52.230;12.856;2022-08-25T09:49:31;26.80;55.60
15543;DHT22;7873;52.230;12.856;2022-08-25T09:54:50;26.90;55.10
15543;DHT22;7873;52.230;12.856;2022-08-25T09:57:30;27.00;54.70
15543;DHT22;7873;52.230;12.856;2022-08-25T10:00:09;27.00;54.60
15543;DHT22;7873;52.230;12.856;2022-08-25T10:02:44;27.00;54.40
15543;DHT22;7873;52.230;12.856;2022-08-25T10:05:25;27.10;54.40
15543;DHT22;7873;52.230;12.856;2022-08-25T10:07:56;27.00;54.20
15543;DHT22;7873;52.230;12.856;2022-08-25T10:10:27;27.10;54.20
15543;DHT22;7873;52.230;12.856;2022-08-25T10:12:56;27.00;54.10
15543;DHT22;7873;52.230;12.856;2022-08-25T10:15:26;27.10;54.00
15543;DHT22;7873;52.230;12.856;2022-08-25T10:17:56;26.60;56.20
15543;DHT22;7873;52.230;12.856;2022-08-25T10:20:41;26.30;58.30
15543;DHT22;7873;52.230;12.856;2022-08-25T10:23:08;26.20;59.50
15543;DHT22;7873;52.230;12.856;2022-08-25T10:25:39;26.20;60.70
15543;DHT22;7873;52.230;12.856;2022-08-25T10:28:09;26.10;60.60
15543;DHT22;7873;52.230;12.856;2022-08-25T10:30:46;26.20;60.20
15543;DHT22;7873;52.230;12.856;2022-08-25T10:33:25;26.20;61.00
15543;DHT22;7873;52.230;12.856;2022-08-25T10:36:02;26.30;61.30
15543;DHT22;7873;52.230;12.856;2022-08-25T10:38:37;26.40;61.00
15543;DHT22;7873;52.230;12.856;2022-08-25T10:41:11;26.30;61.70
15543;DHT22;7873;52.230;12.856;2022-08-25T10:43:48;26.40;61.30
15543;DHT22;7873;52.230;12.856;2022-08-25T10:46:24;26.50;61.20
15543;DHT22;7873;52.230;12.856;2022-08-25T10:49:00;26.40;61.70
15543;DHT22;7873;52.230;12.856;2022-08-25T10:51:35;26.40;61.80
15543;DHT22;7873;52.230;12.856;2022-08-25T10:54:08;26.50;62.80
15543;DHT22;7873;52.230;12.856;2022-08-25T10:56:49;26.50;61.70
15543;DHT22;7873;52.230;12.856;2022-08-25T10:59:28;26.50;62.10
15543;DHT22;7873;52.230;12.856;2022-08-25T11:05:06;26.40;61.30
15543;DHT22;7873;52.230;12.856;2022-08-25T11:07:36;26.50;60.40
15543;DHT22;7873;52.230;12.856;2022-08-25T11:10:07;26.50;60.40
15543;DHT22;7873;52.230;12.856;2022-08-25T11:12:39;26.60;59.90
15543;DHT22;7873;52.230;12.856;2022-08-25T11:15:11;26.70;59.40
15543;DHT22;7873;52.230;12.856;2022-08-25T11:17:45;26.70;59.00
15543;DHT22;7873;52.230;12.856;2022-08-25T11:20:20;26.70;58.70
15543;DHT22;7873;52.230;12.856;2022-08-25T11:22:49;26.60;58.70
15543;DHT22;7873;52.230;12.856;2022-08-25T11:25:20;26.60;58.50
15543;DHT22;7873;52.230;12.856;2022-08-25T11:27:52;26.60;58.50
15543;DHT22;7873;52.230;12.856;2022-08-25T11:30:26;26.60;58.30
15543;DHT22;7873;52.230;12.856;2022-08-25T11:32:53;26.60;58.00
15543;DHT22;7873;52.230;12.856;2022-08-25T11:35:26;26.70;58.00
15543;DHT22;7873;52.230;12.856;2022-08-25T11:38:01;26.60;58.00
15543;DHT22;7873;52.230;12.856;2022-08-25T11:40:54;26.60;58.00
15543;DHT22;7873;52.230;12.856;2022-08-25T11:43:32;26.60;58.50
15543;DHT22;7873;52.230;12.856;2022-08-25T11:46:16;26.60;57.60
15543;DHT22;7873;52.230;12.856;2022-08-25T11:48:54;26.60;57.70
15543;DHT22;7873;52.230;12.856;2022-08-25T11:51:31;26.50;57.70
15543;DHT22;7873;52.230;12.856;2022-08-25T11:54:05;26.50;57.70
15543;DHT22;7873;52.230;12.856;2022-08-25T11:56:41;26.50;57.60
15543;DHT22;7873;52.230;12.856;2022-08-25T11:59:19;26.50;57.60
15543;DHT22;7873;52.230;12.856;2022-08-25T12:02:29;26.50;57.60
15543;DHT22;7873;52.230;12.856;2022-08-25T12:04:59;26.50;57.40
15543;DHT22;7873;52.230;12.856;2022-08-25T12:07:29;26.50;57.60
15543;DHT22;7873;52.230;12.856;2022-08-25T12:10:56;26.50;57.40
15543;DHT22;7873;52.230;12.856;2022-08-25T12:13:26;26.60;57.40
15543;DHT22;7873;52.230;12.856;2022-08-25T12:16:05;26.50;57.30
15543;DHT22;7873;52.230;12.856;2022-08-25T12:18:37;26.50;57.30
15543;DHT22;7873;52.230;12.856;2022-08-25T12:21:14;26.50;57.30
15543;DHT22;7873;52.230;12.856;2022-08-25T12:23:43;26.50;57.10
15543;DHT22;7873;52.230;12.856;2022-08-25T12:26:31;26.60;57.10
15543;DHT22;7873;52.230;12.856;2022-08-25T12:29:06;26.50;58.60
15543;DHT22;7873;52.230;12.856;2022-08-25T12:34:51;26.60;59.00
15543;DHT22;7873;52.230;12.856;2022-08-25T12:37:34;26.70;58.70
15543;DHT22;7873;52.230;12.856;2022-08-25T12:40:22;26.70;58.40
15543;DHT22;7873;52.230;12.856;2022-08-25T12:42:59;26.80;58.00
15543;DHT22;7873;52.230;12.856;2022-08-25T12:45:31;26.80;57.60
15543;DHT22;7873;52.230;12.856;2022-08-25T12:51:19;26.80;57.10
15543;DHT22;7873;52.230;12.856;2022-08-25T12:53:47;26.90;56.70
15543;DHT22;7873;52.230;12.856;2022-08-25T12:56:19;26.90;56.90
15543;DHT22;7873;52.230;12.856;2022-08-25T12:58:53;26.90;56.70
15543;DHT22;7873;52.230;12.856;2022-08-25T13:01:32;26.90;56.60
15543;DHT22;7873;52.230;12.856;2022-08-25T13:04:18;26.90;56.50
15543;DHT22;7873;52.230;12.856;2022-08-25T13:07:12;26.80;56.60
15543;DHT22;7873;52.230;12.856;2022-08-25T13:12:56;26.80;56.70
15543;DHT22;7873;52.230;12.856;2022-08-25T13:15:37;26.80;56.40
15543;DHT22;7873;52.230;12.856;2022-08-25T13:18:13;26.90;56.30
15543;DHT22;7873;52.230;12.856;2022-08-25T13:20:41;26.90;56.30
15543;DHT22;7873;52.230;12.856;2022-08-25T13:23:08;26.80;56.40
15543;DHT22;7873;52.230;12.856;2022-08-25T13:25:35;26.80;56.40
15543;DHT22;7873;52.230;12.856;2022-08-25T13:28:17;26.80;56.30
15543;DHT22;7873;52.230;12.856;2022-08-25T13:30:54;26.90;56.30
15543;DHT22;7873;52.230;12.856;2022-08-25T13:33:22;26.90;56.20
15543;DHT22;7873;52.230;12.856;2022-08-25T13:35:50;26.80;56.10
15543;DHT22;7873;52.230;12.856;2022-08-25T13:38:40;26.80;56.10
15543;DHT22;7873;52.230;12.856;2022-08-25T13:41:07;26.90;56.10
15543;DHT22;7873;52.230;12.856;2022-08-25T13:43:35;26.80;56.10
15543;DHT22;7873;52.230;12.856;2022-08-25T13:46:04;26.80;56.30
15543;DHT22;7873;52.230;12.856;2022-08-25T13:48:32;26.70;56.40
15543;DHT22;7873;52.230;12.856;2022-08-25T13:51:05;26.80;56.30
15543;DHT22;7873;52.230;12.856;2022-08-25T13:53:47;26.70;56.40
15543;DHT22;7873;52.230;12.856;2022-08-25T13:56:21;26.70;56.60
15543;DHT22;7873;52.230;12.856;2022-08-25T13:58:51;26.60;56.70
15543;DHT22;7873;52.230;12.856;2022-08-25T14:01:18;26.60;56.60
15543;DHT22;7873;52.230;12.856;2022-08-25T14:03:48;26.70;56.60
15543;DHT22;7873;52.230;12.856;2022-08-25T14:06:18;26.70;56.30
15543;DHT22;7873;52.230;12.856;2022-08-25T14:08:47;26.70;56.20
15543;DHT22;7873;52.230;12.856;2022-08-25T14:11:29;26.70;56.40
15543;DHT22;7873;52.230;12.856;2022-08-25T14:14:00;26.60;56.70
15543;DHT22;7873;52.230;12.856;2022-08-25T14:16:28;26.60;56.70
15543;DHT22;7873;52.230;12.856;2022-08-25T14:18:59;26.60;56.70
15543;DHT22;7873;52.230;12.856;2022-08-25T14:21:28;26.60;56.70
15543;DHT22;7873;52.230;12.856;2022-08-25T14:23:56;26.60;57.00
15543;DHT22;7873;52.230;12.856;2022-08-25T14:26:24;26.60;58.40
15543;DHT22;7873;52.230;12.856;2022-08-25T14:28:51;26.70;58.00
15543;DHT22;7873;52.230;12.856;2022-08-25T14:31:22;26.70;58.30
15543;DHT22;7873;52.230;12.856;2022-08-25T14:33:53;26.70;58.50
15543;DHT22;7873;52.230;12.856;2022-08-25T14:36:22;26.80;58.40
15543;DHT22;7873;52.230;12.856;2022-08-25T14:38:49;26.80;58.80
15543;DHT22;7873;52.230;12.856;2022-08-25T14:41:16;26.90;59.00
15543;DHT22;7873;52.230;12.856;2022-08-25T14:43:43;26.90;58.30
15543;DHT22;7873;52.230;12.856;2022-08-25T14:46:11;26.80;58.50
15543;DHT22;7873;52.230;12.856;2022-08-25T14:48:44;26.80;58.50
15543;DHT22;7873;52.230;12.856;2022-08-25T14:51:14;26.80;58.50
15543;DHT22;7873;52.230;12.856;2022-08-25T14:53:41;26.80;58.80
15543;DHT22;7873;52.230;12.856;2022-08-25T14:56:09;26.80;58.90
15543;DHT22;7873;52.230;12.856;2022-08-25T14:58:36;26.90;59.10
15543;DHT22;7873;52.230;12.856;2022-08-25T15:01:02;27.00;59.30
15543;DHT22;7873;52.230;12.856;2022-08-25T15:03:31;27.00;59.10
15543;DHT22;7873;52.230;12.856;2022-08-25T15:06:02;27.00;59.10
15543;DHT22;7873;52.230;12.856;2022-08-25T15:08:30;27.00;59.20
15543;DHT22;7873;52.230;12.856;2022-08-25T15:11:14;27.00;59.50
15543;DHT22;7873;52.230;12.856;2022-08-25T15:13:41;27.10;59.80
15543;DHT22;7873;52.230;12.856;2022-08-25T15:16:09;27.20;60.20
15543;DHT22;7873;52.230;12.856;2022-08-25T15:18:40;27.20;59.80
15543;DHT22;7873;52.230;12.856;2022-08-25T15:21:09;27.20;59.30
15543;DHT22;7873;52.230;12.856;2022-08-25T15:23:36;27.20;59.20
15543;DHT22;7873;52.230;12.856;2022-08-25T15:26:03;27.30;58.90
15543;DHT22;7873;52.230;12.856;2022-08-25T15:28:33;27.30;58.60
15543;DHT22;7873;52.230;12.856;2022-08-25T15:31:00;27.30;58.20
15543;DHT22;7873;52.230;12.856;2022-08-25T15:33:27;27.40;58.10
15543;DHT22;7873;52.230;12.856;2022-08-25T15:35:54;27.40;57.90
15543;DHT22;7873;52.230;12.856;2022-08-25T15:38:22;27.40;57.70
15543;DHT22;7873;52.230;12.856;2022-08-25T15:40:49;27.50;57.60
15543;DHT22;7873;52.230;12.856;2022-08-25T15:43:15;27.50;57.70
15543;DHT22;7873;52.230;12.856;2022-08-25T15:45:42;27.40;57.80
15543;DHT22;7873;52.230;12.856;2022-08-25T15:48:09;27.50;57.60
15543;DHT22;7873;52.230;12.856;2022-08-25T15:50:35;27.60;57.50
15543;DHT22;7873;52.230;12.856;2022-08-25T15:53:02;27.60;57.30
15543;DHT22;7873;52.230;12.856;2022-08-25T15:55:30;27.50;57.10
15543;DHT22;7873;52.230;12.856;2022-08-25T15:57:57;27.50;57.00
15543;DHT22;7873;52.230;12.856;2022-08-25T16:00:24;27.50;57.10
15543;DHT22;7873;52.230;12.856;2022-08-25T16:02:50;27.50;57.20
15543;DHT22;7873;52.230;12.856;2022-08-25T16:05:17;27.60;57.10
15543;DHT22;7873;52.230;12.856;2022-08-25T16:07:44;27.70;56.80